Terminal Aerodrome Forecast
Issued by NWS Cleveland, OH

Home | Current Version | Previous Version | Text Only | Print | Product List | Glossary Off
Versions: 1 2 3 4 5 6 7 8 9 10 11 12 13 14 15 16 17 18 19 20 21 22 23 24

000
FTUS41 KCLE 121928 AAA
TAFERI
TAF AMD
KERI 121928Z 1219/1318 29015G25KT 1SM -SN BKN035
      TEMPO 1219/1223 30015KT 1/4SM +SN BKN015
     FM130100 29018G28KT 2SM -SHSN OVC025
      TEMPO 1302/1306 30015KT 1/2SM SN OVC015
     FM130600 29015G25KT 2SM -SHSN OVC020
     FM131500 26015G25KT 5SM -SHSN OVC030=

USA.gov is the U.S. government's official web portal to all federal, state and local government web resources and services.